createdAt,value
2018-12-27T00:02:31.406Z,17.32
2018-12-27T00:05:19.049Z,14.70
2018-12-27T00:08:07.375Z,15.48
2018-12-27T00:10:55.623Z,16.55
2018-12-27T00:13:43.181Z,17.10
2018-12-27T00:16:32.296Z,16.12
2018-12-27T00:19:20.496Z,15.60
2018-12-27T00:22:08.651Z,15.48
2018-12-27T00:24:49.167Z,18.02
2018-12-27T00:27:30.227Z,15.00
2018-12-27T00:30:11.116Z,14.33
2018-12-27T00:32:52.353Z,13.78
2018-12-27T00:35:33.907Z,18.17
2018-12-27T00:38:15.176Z,18.67
2018-12-27T00:40:56.360Z,16.15
2018-12-27T00:43:36.996Z,18.25
2018-12-27T00:46:20.633Z,17.60
2018-12-27T00:48:49.886Z,17.42
2018-12-27T00:51:37.572Z,15.38
2018-12-27T00:54:25.493Z,15.78
2018-12-27T00:57:13.378Z,15.75
2018-12-27T01:00:01.263Z,17.00
2018-12-27T01:02:49.038Z,19.12
2018-12-27T01:05:37.210Z,15.23
2018-12-27T01:08:25.301Z,14.10
2018-12-27T01:11:13.183Z,15.93
2018-12-27T01:14:01.645Z,14.93
2018-12-27T01:16:49.887Z,15.45
2018-12-27T01:19:38.067Z,14.58
2018-12-27T01:22:25.611Z,13.45
2018-12-27T01:40:03.238Z,13.98
2018-12-27T01:45:56.953Z,15.40
2018-12-27T01:48:37.524Z,13.28
2018-12-27T01:51:18.408Z,13.55
2018-12-27T01:53:58.877Z,15.00
2018-12-27T01:56:39.942Z,15.55
2018-12-27T01:59:20.881Z,17.10
2018-12-27T02:02:02.081Z,14.90
2018-12-27T02:04:43.617Z,15.58
2018-12-27T02:10:23.763Z,16.05
2018-12-27T02:13:04.651Z,18.12
2018-12-27T02:15:45.541Z,16.32
2018-12-27T02:21:24.946Z,17.55
2018-12-27T02:24:05.876Z,17.57
2018-12-27T02:32:57.462Z,14.15
2018-12-27T02:35:38.805Z,14.25
2018-12-27T02:38:20.238Z,13.43
2018-12-27T02:41:01.019Z,13.78
2018-12-27T02:43:42.478Z,13.15
2018-12-27T02:49:36.585Z,14.10
2018-12-27T02:52:17.251Z,14.50
2018-12-27T02:54:59.214Z,14.07
2018-12-27T02:57:40.250Z,18.27
2018-12-27T03:00:20.826Z,14.90
2018-12-27T03:03:01.544Z,14.07
2018-12-27T03:05:42.901Z,13.75
2018-12-27T03:08:23.354Z,13.28
2018-12-27T03:20:16.611Z,15.80
2018-12-27T03:26:10.509Z,12.47
2018-12-27T03:28:51.217Z,14.50
2018-12-27T03:31:31.852Z,15.68
2018-12-27T03:34:12.684Z,15.68
2018-12-27T03:36:53.113Z,16.23
2018-12-27T03:39:35.718Z,14.70
2018-12-27T03:45:29.140Z,13.40
2018-12-27T03:48:10.103Z,13.48
2018-12-27T03:50:50.631Z,15.10
2018-12-27T03:53:31.643Z,13.15
2018-12-27T03:56:12.641Z,16.05
2018-12-27T03:58:53.784Z,14.65
2018-12-27T04:01:34.570Z,15.08
2018-12-27T04:04:15.260Z,15.85
2018-12-27T04:06:56.032Z,14.28
2018-12-27T04:09:36.779Z,18.25
2018-12-27T04:12:17.703Z,14.73
2018-12-27T04:14:46.688Z,15.63
2018-12-27T04:17:34.536Z,15.03
2018-12-27T04:20:22.805Z,14.90
2018-12-27T04:23:03.979Z,17.12
2018-12-27T04:25:44.603Z,15.05
2018-12-27T04:28:25.527Z,14.53
2018-12-27T04:31:07.017Z,15.95
2018-12-27T04:33:47.358Z,13.90
2018-12-27T04:36:27.884Z,17.75
2018-12-27T04:39:08.984Z,18.17
2018-12-27T04:41:48.456Z,17.00
2018-12-27T04:44:37.075Z,13.60
2018-12-27T04:47:25.242Z,18.20
2018-12-27T04:50:13.359Z,17.60
2018-12-27T04:53:01.385Z,12.37
2018-12-27T04:55:49.473Z,14.30
2018-12-27T04:58:37.488Z,15.40
2018-12-27T05:01:25.680Z,13.48
2018-12-27T05:04:18.016Z,15.30
2018-12-27T05:07:04.130Z,16.32
2018-12-27T05:09:52.417Z,13.98
2018-12-27T05:12:40.515Z,14.18
2018-12-27T05:15:28.609Z,17.12
2018-12-27T05:18:36.127Z,14.00
2018-12-27T05:21:24.454Z,14.00
2018-12-27T05:24:05.816Z,14.23
2018-12-27T05:29:29.039Z,15.23
2018-12-27T05:32:09.911Z,13.38
2018-12-27T05:34:51.190Z,14.85
2018-12-27T05:37:32.370Z,16.42
2018-12-27T05:40:13.720Z,13.32
2018-12-27T05:42:54.215Z,14.68
2018-12-27T05:45:35.361Z,14.58
2018-12-27T05:48:15.773Z,13.93
2018-12-27T05:50:56.770Z,12.95
2018-12-27T05:53:37.383Z,13.25
2018-12-27T05:56:17.897Z,13.95
2018-12-27T05:58:58.530Z,13.20
2018-12-27T06:01:27.699Z,14.68
2018-12-27T06:04:16.029Z,13.03
2018-12-27T06:07:04.230Z,12.33
2018-12-27T06:09:52.371Z,13.20
2018-12-27T06:12:40.399Z,14.00
2018-12-27T06:15:28.243Z,13.48
2018-12-27T06:18:16.336Z,14.78
2018-12-27T06:21:04.433Z,14.93
2018-12-27T06:23:45.525Z,14.23
2018-12-27T06:26:26.366Z,13.95
2018-12-27T06:29:06.804Z,15.85
2018-12-27T06:31:47.584Z,15.03
2018-12-27T06:34:28.943Z,14.15
2018-12-27T06:37:10.039Z,13.15
2018-12-27T06:39:50.608Z,12.43
2018-12-27T06:42:31.506Z,14.80
2018-12-27T06:45:12.599Z,15.05
2018-12-27T06:47:53.211Z,15.10
2018-12-27T06:50:34.462Z,15.88
2018-12-27T06:53:14.821Z,15.93
2018-12-27T06:55:55.783Z,15.58
2018-12-27T07:01:49.129Z,15.40
2018-12-27T07:04:29.580Z,13.75
2018-12-27T07:07:10.029Z,15.45
2018-12-27T07:09:51.063Z,16.23
2018-12-27T07:12:31.809Z,16.20
2018-12-27T07:15:13.191Z,15.90
2018-12-27T07:17:53.964Z,16.93
2018-12-27T07:20:34.709Z,16.48
2018-12-27T07:23:15.725Z,16.12
2018-12-27T07:25:57.083Z,17.50
2018-12-27T07:28:38.316Z,14.47
2018-12-27T07:31:07.351Z,16.20
2018-12-27T07:33:36.314Z,19.87
2018-12-27T07:36:05.299Z,17.00
2018-12-27T07:38:35.056Z,13.60
2018-12-27T07:41:04.648Z,15.70
2018-12-27T07:43:34.239Z,16.73
2018-12-27T07:46:10.626Z,15.95
2018-12-27T07:48:34.139Z,16.70
2018-12-27T07:51:03.220Z,19.57
2018-12-27T07:53:32.488Z,14.75
2018-12-27T07:56:01.493Z,21.12
2018-12-27T07:58:30.364Z,16.27
2018-12-27T08:00:59.708Z,16.42
2018-12-27T08:03:28.648Z,16.15
2018-12-27T08:05:57.958Z,18.35
2018-12-27T08:08:27.195Z,18.45
2018-12-27T08:10:56.392Z,19.90
2018-12-27T08:13:26.015Z,17.15
2018-12-27T08:15:55.879Z,17.75
2018-12-27T08:18:25.471Z,19.90
2018-12-27T08:20:54.918Z,19.32
2018-12-27T08:23:24.298Z,16.67
2018-12-27T08:25:53.701Z,17.90
2018-12-27T08:28:22.681Z,16.35
2018-12-27T08:30:51.983Z,18.52
2018-12-27T08:33:20.996Z,18.42
2018-12-27T08:35:50.374Z,18.77
2018-12-27T08:38:19.724Z,19.57
2018-12-27T08:40:48.999Z,21.87
2018-12-27T08:43:18.776Z,20.00
2018-12-27T08:45:47.790Z,18.75
2018-12-27T08:48:17.008Z,22.35
2018-12-27T08:50:46.583Z,20.27
2018-12-27T08:53:15.834Z,21.15
2018-12-27T08:55:44.740Z,19.35
2018-12-27T08:58:13.835Z,21.05
2018-12-27T09:00:43.244Z,17.35
2018-12-27T09:03:12.302Z,22.27
2018-12-27T09:05:41.278Z,21.23
2018-12-27T09:08:10.531Z,20.77
2018-12-27T09:10:39.936Z,18.10
2018-12-27T09:13:09.401Z,23.27
2018-12-27T09:15:38.377Z,17.92
2018-12-27T09:18:08.037Z,18.37
2018-12-27T09:20:37.446Z,22.20
2018-12-27T09:23:06.665Z,19.75
2018-12-27T09:25:36.183Z,17.60
2018-12-27T09:28:05.211Z,17.17
2018-12-27T09:30:36.743Z,17.82
2018-12-27T09:33:05.755Z,18.20
2018-12-27T09:35:35.339Z,18.77
2018-12-27T09:38:04.962Z,17.85
2018-12-27T09:40:34.411Z,17.80
2018-12-27T09:43:03.760Z,19.85
2018-12-27T09:45:32.767Z,18.40
2018-12-27T09:48:14.264Z,18.82
2018-12-27T09:50:43.316Z,20.90
2018-12-27T09:53:12.408Z,18.65
2018-12-27T09:55:41.668Z,19.05
2018-12-27T09:58:10.647Z,20.12
2018-12-27T10:00:39.975Z,17.02
2018-12-27T10:03:12.351Z,19.60
2018-12-27T10:05:41.499Z,22.48
2018-12-27T10:08:11.027Z,18.07
2018-12-27T10:10:40.487Z,20.30
2018-12-27T10:13:09.642Z,17.65
2018-12-27T10:15:38.712Z,16.90
2018-12-27T10:18:07.702Z,21.00
2018-12-27T10:20:36.997Z,27.50
2018-12-27T10:23:06.458Z,21.30
2018-12-27T10:25:35.799Z,16.82
2018-12-27T10:28:05.243Z,18.92
2018-12-27T10:30:34.606Z,18.55
2018-12-27T10:33:03.556Z,20.75
2018-12-27T10:35:32.856Z,18.35
2018-12-27T10:38:02.433Z,17.60
2018-12-27T10:40:32.713Z,19.27
2018-12-27T10:43:01.896Z,20.35
2018-12-27T10:45:31.317Z,18.07
2018-12-27T10:48:00.640Z,16.05
2018-12-27T10:50:29.955Z,17.62
2018-12-27T10:53:01.317Z,20.52
2018-12-27T10:55:30.540Z,16.75
2018-12-27T10:57:59.694Z,17.32
2018-12-27T11:00:28.863Z,16.23
2018-12-27T11:02:58.121Z,19.37
2018-12-27T11:05:27.252Z,18.57
2018-12-27T11:07:56.319Z,17.15
2018-12-27T11:10:25.635Z,17.32
2018-12-27T11:12:54.744Z,16.73
2018-12-27T11:15:23.754Z,17.15
2018-12-27T11:17:53.023Z,16.48
2018-12-27T11:20:22.018Z,18.10
2018-12-27T11:22:51.226Z,15.95
2018-12-27T11:25:20.162Z,19.07
2018-12-27T11:27:49.800Z,17.40
2018-12-27T11:30:18.903Z,15.30
2018-12-27T11:32:48.001Z,15.72
2018-12-27T11:35:16.972Z,12.53
2018-12-27T11:37:45.946Z,17.75
2018-12-27T11:40:14.851Z,17.25
2018-12-27T11:42:43.906Z,15.23
2018-12-27T11:45:12.973Z,17.45
2018-12-27T11:47:41.935Z,15.53
2018-12-27T11:50:10.867Z,17.20
2018-12-27T11:52:39.987Z,17.48
2018-12-27T11:55:09.393Z,16.15
2018-12-27T11:57:38.724Z,15.60
2018-12-27T12:00:09.531Z,14.98
2018-12-27T12:02:39.265Z,14.85
2018-12-27T12:05:08.387Z,16.00
2018-12-27T12:07:38.260Z,16.52
2018-12-27T12:10:07.744Z,15.40
2018-12-27T12:12:37.367Z,16.75
2018-12-27T12:15:07.706Z,17.45
2018-12-27T12:17:37.913Z,19.60
2018-12-27T12:20:07.023Z,20.05
2018-12-27T12:22:36.078Z,20.15
2018-12-27T12:25:05.333Z,20.43
2018-12-27T12:27:34.745Z,24.35
2018-12-27T12:30:03.952Z,20.43
2018-12-27T12:32:33.091Z,20.50
2018-12-27T12:35:02.220Z,21.20
2018-12-27T12:37:31.497Z,21.73
2018-12-27T12:40:00.584Z,22.77
2018-12-27T12:42:32.779Z,23.95
2018-12-27T12:45:00.347Z,21.80
2018-12-27T12:47:29.466Z,22.05
2018-12-27T12:49:58.971Z,22.05
2018-12-27T12:52:28.196Z,19.32
2018-12-27T12:54:57.315Z,21.82
2018-12-27T12:57:26.349Z,23.70
2018-12-27T12:59:55.336Z,19.20
2018-12-27T13:02:24.419Z,21.00
2018-12-27T13:04:53.760Z,20.77
2018-12-27T13:07:23.091Z,21.27
2018-12-27T13:09:52.095Z,19.42
2018-12-27T13:12:21.147Z,19.98
2018-12-27T13:14:50.206Z,19.57
2018-12-27T13:17:19.511Z,17.98
2018-12-27T13:19:48.612Z,16.75
2018-12-27T13:22:17.732Z,19.27
2018-12-27T13:24:46.722Z,19.52
2018-12-27T13:27:15.693Z,17.07
2018-12-27T13:29:45.064Z,20.45
2018-12-27T13:32:14.032Z,18.52
2018-12-27T13:34:43.251Z,15.60
2018-12-27T13:37:12.559Z,17.30
2018-12-27T13:39:41.905Z,18.60
2018-12-27T13:42:11.171Z,16.48
2018-12-27T13:44:40.766Z,18.48
2018-12-27T13:47:12.908Z,14.83
2018-12-27T13:49:42.448Z,17.15
2018-12-27T13:52:11.769Z,16.17
2018-12-27T13:54:41.480Z,18.42
2018-12-27T13:57:10.501Z,19.90
2018-12-27T13:59:39.978Z,18.00
2018-12-27T14:02:09.196Z,18.82
2018-12-27T14:04:38.171Z,16.65
2018-12-27T14:07:08.075Z,18.75
2018-12-27T14:09:37.141Z,17.57
2018-12-27T14:12:06.446Z,19.10
2018-12-27T14:14:35.607Z,19.48
2018-12-27T14:17:06.971Z,20.60
2018-12-27T14:19:35.952Z,19.17
2018-12-27T14:22:05.108Z,20.57
2018-12-27T14:24:34.258Z,18.00
2018-12-27T14:27:03.252Z,19.25
2018-12-27T14:29:32.673Z,16.62
2018-12-27T14:32:01.884Z,16.82
2018-12-27T14:34:31.059Z,15.25
2018-12-27T14:37:00.984Z,21.48
2018-12-27T14:39:31.927Z,20.25
2018-12-27T14:42:01.035Z,17.82
2018-12-27T14:44:30.103Z,18.30
2018-12-27T14:46:59.104Z,17.40
2018-12-27T14:49:34.223Z,19.52
2018-12-27T14:52:03.467Z,20.00
2018-12-27T14:54:32.495Z,20.85
2018-12-27T14:57:01.662Z,19.10
2018-12-27T14:59:30.865Z,17.77
2018-12-27T15:02:00.083Z,17.23
2018-12-27T15:04:29.009Z,18.05
2018-12-27T15:06:57.954Z,15.63
2018-12-27T15:09:27.400Z,17.02
2018-12-27T15:11:56.470Z,17.15
2018-12-27T15:14:25.723Z,19.23
2018-12-27T15:16:55.825Z,16.10
2018-12-27T15:19:24.833Z,18.42
2018-12-27T15:21:55.462Z,13.88
2018-12-27T15:24:25.001Z,14.25
2018-12-27T15:26:54.044Z,13.90
2018-12-27T15:29:23.044Z,15.45
2018-12-27T15:31:52.158Z,14.90
2018-12-27T15:34:21.305Z,16.00
2018-12-27T15:36:54.286Z,15.15
2018-12-27T15:39:21.147Z,17.55
2018-12-27T15:41:58.165Z,17.15
2018-12-27T15:44:27.023Z,14.25
2018-12-27T15:46:56.010Z,13.40
2018-12-27T15:49:24.885Z,14.68
2018-12-27T15:51:53.906Z,15.72
2018-12-27T15:54:22.932Z,14.18
2018-12-27T15:56:51.875Z,14.90
2018-12-27T15:59:24.327Z,15.53
2018-12-27T16:01:53.460Z,16.35
2018-12-27T16:04:22.651Z,15.83
2018-12-27T16:06:51.925Z,15.08
2018-12-27T16:09:21.111Z,14.75
2018-12-27T16:11:50.251Z,16.37
2018-12-27T16:14:19.127Z,18.00
2018-12-27T16:16:48.025Z,15.58
2018-12-27T16:19:17.328Z,17.07
2018-12-27T16:21:46.184Z,17.17
2018-12-27T16:24:15.990Z,16.30
2018-12-27T16:26:45.511Z,15.50
2018-12-27T16:29:14.492Z,14.45
2018-12-27T16:31:43.500Z,15.13
2018-12-27T16:34:12.451Z,17.15
2018-12-27T16:36:42.013Z,16.48
2018-12-27T16:39:11.442Z,15.40
2018-12-27T16:41:41.212Z,16.02
2018-12-27T16:44:10.495Z,13.65
2018-12-27T16:46:39.725Z,17.70
2018-12-27T16:49:08.989Z,19.17
2018-12-27T16:51:38.193Z,14.55
2018-12-27T16:54:11.777Z,17.60
2018-12-27T16:56:40.738Z,19.50
2018-12-27T16:59:10.276Z,17.00
2018-12-27T17:01:39.632Z,17.60
2018-12-27T17:04:10.673Z,17.15
2018-12-27T17:06:39.733Z,16.93
2018-12-27T17:09:08.955Z,16.87
2018-12-27T17:11:38.066Z,16.15
2018-12-27T17:14:07.409Z,18.32
2018-12-27T17:16:36.913Z,17.90
2018-12-27T17:19:06.087Z,15.75
2018-12-27T17:21:35.355Z,43.60
2018-12-27T17:24:04.670Z,17.48
2018-12-27T17:26:33.598Z,18.48
2018-12-27T17:29:02.585Z,15.55
2018-12-27T17:31:32.031Z,18.48
2018-12-27T17:34:01.261Z,18.02
2018-12-27T17:36:30.481Z,16.25
2018-12-27T17:38:59.631Z,15.75
2018-12-27T17:41:28.611Z,17.10
2018-12-27T17:43:57.637Z,18.48
2018-12-27T17:46:26.686Z,20.20
2018-12-27T17:48:57.062Z,17.65
2018-12-27T17:51:26.722Z,17.30
2018-12-27T17:53:56.079Z,19.67
2018-12-27T17:56:25.662Z,21.60
2018-12-27T17:58:54.627Z,19.37
2018-12-27T18:01:29.713Z,14.90
2018-12-27T18:04:07.852Z,15.05
2018-12-27T18:06:37.054Z,17.70
2018-12-27T18:09:08.018Z,15.10
2018-12-27T18:11:45.284Z,15.43
2018-12-27T18:14:14.303Z,17.85
2018-12-27T18:16:44.838Z,18.55
2018-12-27T18:19:15.543Z,17.95
2018-12-27T18:21:44.835Z,13.10
2018-12-27T18:24:14.095Z,15.48
2018-12-27T18:26:43.333Z,17.40
2018-12-27T18:29:12.614Z,13.70
2018-12-27T18:31:41.719Z,10.82
2018-12-27T18:34:11.006Z,16.77
2018-12-27T18:36:40.038Z,10.70
2018-12-27T18:39:09.055Z,10.63
2018-12-27T18:41:38.019Z,6.60
2018-12-27T18:44:06.977Z,13.75
2018-12-27T18:46:36.010Z,15.03
2018-12-27T18:49:05.044Z,18.77
2018-12-27T18:51:34.280Z,19.00
2018-12-27T18:54:03.422Z,13.05
2018-12-27T18:56:32.725Z,19.65
2018-12-27T18:59:01.694Z,15.43
2018-12-27T19:01:30.757Z,12.58
2018-12-27T19:04:00.012Z,12.18
2018-12-27T19:06:29.079Z,16.95
2018-12-27T19:08:58.126Z,11.88
2018-12-27T19:12:02.524Z,15.38
2018-12-27T19:14:31.454Z,18.37
2018-12-27T19:17:01.331Z,17.95
2018-12-27T19:19:30.453Z,16.40
2018-12-27T19:22:12.383Z,10.28
2018-12-27T19:24:41.393Z,17.25
2018-12-27T19:27:10.468Z,16.77
2018-12-27T19:29:40.093Z,20.25
2018-12-27T19:32:09.308Z,18.23
2018-12-27T19:34:38.271Z,21.45
2018-12-27T19:37:07.294Z,19.27
2018-12-27T19:39:36.161Z,20.45
2018-12-27T19:42:05.972Z,22.60
2018-12-27T19:44:35.336Z,18.30
2018-12-27T19:47:04.374Z,17.70
2018-12-27T19:49:34.024Z,23.32
2018-12-27T19:52:03.232Z,19.45
2018-12-27T19:54:34.694Z,18.27
2018-12-27T19:57:03.956Z,14.98
2018-12-27T19:59:33.290Z,15.35
2018-12-27T20:02:02.613Z,21.00
2018-12-27T20:04:34.354Z,17.75
2018-12-27T20:07:03.634Z,27.58
2018-12-27T20:09:32.635Z,26.00
2018-12-27T20:12:02.013Z,19.10
2018-12-27T20:14:45.238Z,19.87
2018-12-27T20:17:14.387Z,20.23
2018-12-27T20:19:43.325Z,18.62
2018-12-27T20:22:12.612Z,20.32
2018-12-27T20:24:41.603Z,18.25
2018-12-27T20:27:10.463Z,19.00
2018-12-27T20:29:39.522Z,23.27
2018-12-27T20:32:08.449Z,19.82
2018-12-27T20:34:37.391Z,19.37
2018-12-27T20:37:06.476Z,20.95
2018-12-27T20:39:35.752Z,18.50
2018-12-27T20:42:04.735Z,19.50
2018-12-27T20:44:37.022Z,21.65
2018-12-27T20:47:06.077Z,20.75
2018-12-27T20:49:35.935Z,18.80
2018-12-27T20:52:05.431Z,18.62
2018-12-27T20:54:34.558Z,25.25
2018-12-27T20:57:03.543Z,36.63
2018-12-27T20:59:32.723Z,21.55
2018-12-27T21:02:01.995Z,23.42
2018-12-27T21:04:31.222Z,21.12
2018-12-27T21:07:00.517Z,19.87
2018-12-27T21:09:29.767Z,22.02
2018-12-27T21:11:59.221Z,20.10
2018-12-27T21:14:33.834Z,21.95
2018-12-27T21:17:02.828Z,24.20
2018-12-27T21:19:31.688Z,23.62
2018-12-27T21:22:00.540Z,14.28
2018-12-27T21:24:29.470Z,15.65
2018-12-27T21:26:58.409Z,23.70
2018-12-27T21:29:27.411Z,19.62
2018-12-27T21:31:56.299Z,20.40
2018-12-27T21:34:25.241Z,24.95
2018-12-27T21:36:54.298Z,20.10
2018-12-27T21:39:23.414Z,21.90
2018-12-27T21:41:52.842Z,20.77
2018-12-27T21:44:21.787Z,19.70
2018-12-27T21:46:50.769Z,19.98
2018-12-27T21:49:20.011Z,23.90
2018-12-27T21:51:49.225Z,21.33
2018-12-27T21:54:18.452Z,21.65
2018-12-27T21:56:47.331Z,22.55
2018-12-27T21:59:16.206Z,25.97
2018-12-27T22:01:45.477Z,23.20
2018-12-27T22:04:14.365Z,39.33
2018-12-27T22:06:43.625Z,25.97
2018-12-27T22:09:12.647Z,21.33
2018-12-27T22:11:41.938Z,23.70
2018-12-27T22:14:11.059Z,20.65
2018-12-27T22:16:40.308Z,23.87
2018-12-27T22:19:09.310Z,21.82
2018-12-27T22:21:38.574Z,24.23
2018-12-27T22:24:07.848Z,25.48
2018-12-27T22:26:37.683Z,24.57
2018-12-27T22:29:06.939Z,22.37
2018-12-27T22:31:36.188Z,24.45
2018-12-27T22:34:05.249Z,22.40
2018-12-27T22:36:34.494Z,22.25
2018-12-27T22:39:05.176Z,25.05
2018-12-27T22:41:34.290Z,23.80
2018-12-27T22:44:03.483Z,21.77
2018-12-27T22:46:32.378Z,21.80
2018-12-27T22:49:01.665Z,25.08
2018-12-27T22:51:30.606Z,21.95
2018-12-27T22:53:59.767Z,25.85
2018-12-27T22:56:28.747Z,29.50
2018-12-27T22:58:57.626Z,24.12
2018-12-27T23:01:27.190Z,27.27
2018-12-27T23:03:56.703Z,22.73
2018-12-27T23:06:25.702Z,21.40
2018-12-27T23:08:54.707Z,23.85
2018-12-27T23:11:23.934Z,24.30
2018-12-27T23:13:53.207Z,19.87
2018-12-27T23:16:22.484Z,20.95
2018-12-27T23:18:51.875Z,22.15
2018-12-27T23:21:20.866Z,20.72
2018-12-27T23:23:50.091Z,21.30
2018-12-27T23:26:19.242Z,23.07
2018-12-27T23:28:48.959Z,22.85
2018-12-27T23:31:17.909Z,22.62
2018-12-27T23:33:47.131Z,24.00
2018-12-27T23:36:16.800Z,23.80
2018-12-27T23:38:50.307Z,22.07
2018-12-27T23:41:16.575Z,25.20
2018-12-27T23:43:45.563Z,22.50
2018-12-27T23:46:14.746Z,22.90
2018-12-27T23:48:43.651Z,22.10
2018-12-27T23:51:12.665Z,22.40
2018-12-27T23:53:41.687Z,21.87
2018-12-27T23:56:10.602Z,24.43
2018-12-27T23:58:40.091Z,21.77
